sensor_id;sensor_type;location;lat;lon;timestamp;P1;durP1;ratioP1;P2;durP2;ratioP2
20984;SDS011;10651;47.552;7.606;2022-07-24T00:00:27;13.65;;;9.80;;
20984;SDS011;10651;47.552;7.606;2022-07-24T00:02:53;10.90;;;9.43;;
20984;SDS011;10651;47.552;7.606;2022-07-24T00:05:32;14.30;;;9.05;;
20984;SDS011;10651;47.552;7.606;2022-07-24T00:08:04;15.65;;;10.00;;
20984;SDS011;10651;47.552;7.606;2022-07-24T00:10:30;11.38;;;9.70;;
20984;SDS011;10651;47.552;7.606;2022-07-24T00:12:56;11.35;;;9.70;;
20984;SDS011;10651;47.552;7.606;2022-07-24T00:15:34;10.48;;;9.38;;
20984;SDS011;10651;47.552;7.606;2022-07-24T00:20:40;12.93;;;9.70;;
20984;SDS011;10651;47.552;7.606;2022-07-24T00:23:14;13.68;;;9.40;;
20984;SDS011;10651;47.552;7.606;2022-07-24T00:25:55;11.55;;;9.13;;
20984;SDS011;10651;47.552;7.606;2022-07-24T00:28:21;12.93;;;9.35;;
20984;SDS011;10651;47.552;7.606;2022-07-24T00:30:52;14.88;;;9.82;;
20984;SDS011;10651;47.552;7.606;2022-07-24T00:33:21;13.20;;;9.60;;
20984;SDS011;10651;47.552;7.606;2022-07-24T00:35:52;13.40;;;9.48;;
20984;SDS011;10651;47.552;7.606;2022-07-24T00:38:25;9.75;;;8.75;;
20984;SDS011;10651;47.552;7.606;2022-07-24T00:40:51;13.00;;;9.35;;
20984;SDS011;10651;47.552;7.606;2022-07-24T00:43:22;16.20;;;9.55;;
20984;SDS011;10651;47.552;7.606;2022-07-24T00:46:08;12.80;;;9.32;;
20984;SDS011;10651;47.552;7.606;2022-07-24T00:48:34;13.90;;;9.82;;
20984;SDS011;10651;47.552;7.606;2022-07-24T00:51:02;15.50;;;10.25;;
20984;SDS011;10651;47.552;7.606;2022-07-24T00:53:33;20.80;;;10.25;;
20984;SDS011;10651;47.552;7.606;2022-07-24T00:56:06;11.48;;;10.00;;
20984;SDS011;10651;47.552;7.606;2022-07-24T00:58:35;14.10;;;10.32;;
20984;SDS011;10651;47.552;7.606;2022-07-24T01:01:01;12.52;;;10.40;;
20984;SDS011;10651;47.552;7.606;2022-07-24T01:03:30;11.80;;;9.45;;
20984;SDS011;10651;47.552;7.606;2022-07-24T01:05:57;11.95;;;9.40;;
20984;SDS011;10651;47.552;7.606;2022-07-24T01:08:25;12.68;;;10.82;;
20984;SDS011;10651;47.552;7.606;2022-07-24T01:10:51;13.57;;;10.70;;
20984;SDS011;10651;47.552;7.606;2022-07-24T01:13:38;12.00;;;9.95;;
20984;SDS011;10651;47.552;7.606;2022-07-24T01:16:12;15.07;;;10.63;;
20984;SDS011;10651;47.552;7.606;2022-07-24T01:18:49;13.73;;;10.55;;
20984;SDS011;10651;47.552;7.606;2022-07-24T01:21:23;14.07;;;9.98;;
20984;SDS011;10651;47.552;7.606;2022-07-24T01:26:53;13.35;;;10.95;;
20984;SDS011;10651;47.552;7.606;2022-07-24T01:29:27;16.63;;;10.35;;
20984;SDS011;10651;47.552;7.606;2022-07-24T01:31:55;14.90;;;10.65;;
20984;SDS011;10651;47.552;7.606;2022-07-24T01:34:26;14.02;;;10.55;;
20984;SDS011;10651;47.552;7.606;2022-07-24T01:36:52;13.35;;;10.25;;
20984;SDS011;10651;47.552;7.606;2022-07-24T01:39:24;13.27;;;10.68;;
20984;SDS011;10651;47.552;7.606;2022-07-24T01:42:00;16.13;;;11.43;;
20984;SDS011;10651;47.552;7.606;2022-07-24T01:44:26;12.75;;;10.65;;
20984;SDS011;10651;47.552;7.606;2022-07-24T01:46:58;16.42;;;10.02;;
20984;SDS011;10651;47.552;7.606;2022-07-24T01:49:29;16.33;;;10.75;;
20984;SDS011;10651;47.552;7.606;2022-07-24T01:51:55;12.35;;;10.68;;
20984;SDS011;10651;47.552;7.606;2022-07-24T01:54:24;11.43;;;10.25;;
20984;SDS011;10651;47.552;7.606;2022-07-24T01:56:50;18.75;;;10.57;;
20984;SDS011;10651;47.552;7.606;2022-07-24T01:59:24;15.15;;;10.50;;
20984;SDS011;10651;47.552;7.606;2022-07-24T02:01:56;13.18;;;10.48;;
20984;SDS011;10651;47.552;7.606;2022-07-24T02:04:47;15.15;;;10.32;;
20984;SDS011;10651;47.552;7.606;2022-07-24T02:07:19;17.30;;;10.43;;
20984;SDS011;10651;47.552;7.606;2022-07-24T02:09:58;16.17;;;11.18;;
20984;SDS011;10651;47.552;7.606;2022-07-24T02:12:52;14.23;;;11.00;;
20984;SDS011;10651;47.552;7.606;2022-07-24T02:18:54;12.75;;;11.18;;
20984;SDS011;10651;47.552;7.606;2022-07-24T02:21:30;13.85;;;10.88;;
20984;SDS011;10651;47.552;7.606;2022-07-24T02:23:56;13.38;;;10.73;;
20984;SDS011;10651;47.552;7.606;2022-07-24T02:26:26;12.95;;;10.77;;
20984;SDS011;10651;47.552;7.606;2022-07-24T02:28:57;15.10;;;11.38;;
20984;SDS011;10651;47.552;7.606;2022-07-24T02:31:32;14.32;;;10.57;;
20984;SDS011;10651;47.552;7.606;2022-07-24T02:33:58;12.35;;;10.63;;
20984;SDS011;10651;47.552;7.606;2022-07-24T02:36:29;12.73;;;10.65;;
20984;SDS011;10651;47.552;7.606;2022-07-24T02:39:00;15.52;;;11.13;;
20984;SDS011;10651;47.552;7.606;2022-07-24T02:41:29;15.25;;;11.75;;
20984;SDS011;10651;47.552;7.606;2022-07-24T02:44:01;13.50;;;11.18;;
20984;SDS011;10651;47.552;7.606;2022-07-24T02:46:33;12.82;;;11.00;;
20984;SDS011;10651;47.552;7.606;2022-07-24T02:49:08;12.45;;;10.65;;
20984;SDS011;10651;47.552;7.606;2022-07-24T02:51:34;12.40;;;11.20;;
20984;SDS011;10651;47.552;7.606;2022-07-24T02:54:03;13.43;;;10.75;;
20984;SDS011;10651;47.552;7.606;2022-07-24T02:56:31;17.55;;;10.93;;
20984;SDS011;10651;47.552;7.606;2022-07-24T02:59:04;15.30;;;10.73;;
20984;SDS011;10651;47.552;7.606;2022-07-24T03:01:33;14.52;;;10.60;;
20984;SDS011;10651;47.552;7.606;2022-07-24T03:04:01;14.68;;;11.15;;
20984;SDS011;10651;47.552;7.606;2022-07-24T03:06:30;12.95;;;11.30;;
20984;SDS011;10651;47.552;7.606;2022-07-24T03:09:02;15.10;;;10.32;;
20984;SDS011;10651;47.552;7.606;2022-07-24T03:11:31;14.75;;;10.23;;
20984;SDS011;10651;47.552;7.606;2022-07-24T03:14:17;13.77;;;10.57;;
20984;SDS011;10651;47.552;7.606;2022-07-24T03:16:50;15.70;;;11.35;;
20984;SDS011;10651;47.552;7.606;2022-07-24T03:19:36;11.80;;;10.52;;
20984;SDS011;10651;47.552;7.606;2022-07-24T03:22:05;13.55;;;11.10;;
20984;SDS011;10651;47.552;7.606;2022-07-24T03:24:41;12.50;;;10.50;;
20984;SDS011;10651;47.552;7.606;2022-07-24T03:27:10;15.20;;;10.18;;
20984;SDS011;10651;47.552;7.606;2022-07-24T03:29:46;13.93;;;10.57;;
20984;SDS011;10651;47.552;7.606;2022-07-24T03:32:15;14.32;;;11.13;;
20984;SDS011;10651;47.552;7.606;2022-07-24T03:34:59;12.70;;;11.25;;
20984;SDS011;10651;47.552;7.606;2022-07-24T03:40:33;15.15;;;11.27;;
20984;SDS011;10651;47.552;7.606;2022-07-24T03:43:02;15.63;;;10.57;;
20984;SDS011;10651;47.552;7.606;2022-07-24T03:45:34;17.02;;;11.43;;
20984;SDS011;10651;47.552;7.606;2022-07-24T03:48:24;13.60;;;10.68;;
20984;SDS011;10651;47.552;7.606;2022-07-24T03:50:51;11.45;;;9.98;;
20984;SDS011;10651;47.552;7.606;2022-07-24T03:53:23;16.45;;;11.30;;
20984;SDS011;10651;47.552;7.606;2022-07-24T03:55:52;14.50;;;11.38;;
20984;SDS011;10651;47.552;7.606;2022-07-24T03:58:20;12.15;;;10.35;;
20984;SDS011;10651;47.552;7.606;2022-07-24T04:01:08;14.30;;;11.45;;
20984;SDS011;10651;47.552;7.606;2022-07-24T04:03:40;14.02;;;10.57;;
20984;SDS011;10651;47.552;7.606;2022-07-24T04:06:20;13.63;;;10.77;;
20984;SDS011;10651;47.552;7.606;2022-07-24T04:08:52;16.70;;;11.90;;
20984;SDS011;10651;47.552;7.606;2022-07-24T04:11:28;15.73;;;11.23;;
20984;SDS011;10651;47.552;7.606;2022-07-24T04:14:01;18.77;;;11.02;;
20984;SDS011;10651;47.552;7.606;2022-07-24T04:16:29;14.05;;;11.48;;
20984;SDS011;10651;47.552;7.606;2022-07-24T04:19:01;12.85;;;10.30;;
20984;SDS011;10651;47.552;7.606;2022-07-24T04:21:29;21.33;;;11.63;;
20984;SDS011;10651;47.552;7.606;2022-07-24T04:26:49;17.67;;;10.95;;
20984;SDS011;10651;47.552;7.606;2022-07-24T04:29:20;14.65;;;10.57;;
20984;SDS011;10651;47.552;7.606;2022-07-24T04:31:46;14.95;;;10.63;;
20984;SDS011;10651;47.552;7.606;2022-07-24T04:34:23;13.38;;;11.23;;
20984;SDS011;10651;47.552;7.606;2022-07-24T04:36:54;11.88;;;10.57;;
20984;SDS011;10651;47.552;7.606;2022-07-24T04:39:27;20.33;;;11.40;;
20984;SDS011;10651;47.552;7.606;2022-07-24T04:41:53;22.02;;;11.40;;
20984;SDS011;10651;47.552;7.606;2022-07-24T04:44:25;14.40;;;11.30;;
20984;SDS011;10651;47.552;7.606;2022-07-24T04:46:50;14.07;;;11.00;;
20984;SDS011;10651;47.552;7.606;2022-07-24T04:49:16;15.40;;;11.43;;
20984;SDS011;10651;47.552;7.606;2022-07-24T04:51:42;15.65;;;11.10;;
20984;SDS011;10651;47.552;7.606;2022-07-24T04:54:11;23.02;;;11.75;;
20984;SDS011;10651;47.552;7.606;2022-07-24T04:56:42;12.88;;;10.98;;
20984;SDS011;10651;47.552;7.606;2022-07-24T04:59:11;15.15;;;10.93;;
20984;SDS011;10651;47.552;7.606;2022-07-24T05:01:40;16.00;;;12.00;;
20984;SDS011;10651;47.552;7.606;2022-07-24T05:04:06;17.58;;;11.68;;
20984;SDS011;10651;47.552;7.606;2022-07-24T05:06:35;16.02;;;11.57;;
20984;SDS011;10651;47.552;7.606;2022-07-24T05:09:06;17.63;;;12.10;;
20984;SDS011;10651;47.552;7.606;2022-07-24T05:11:35;15.80;;;11.70;;
20984;SDS011;10651;47.552;7.606;2022-07-24T05:14:09;17.02;;;11.75;;
20984;SDS011;10651;47.552;7.606;2022-07-24T05:16:35;18.70;;;12.23;;
20984;SDS011;10651;47.552;7.606;2022-07-24T05:19:06;16.35;;;12.57;;
20984;SDS011;10651;47.552;7.606;2022-07-24T05:21:39;14.02;;;12.20;;
20984;SDS011;10651;47.552;7.606;2022-07-24T05:24:08;16.15;;;12.23;;
20984;SDS011;10651;47.552;7.606;2022-07-24T05:26:34;14.77;;;12.43;;
20984;SDS011;10651;47.552;7.606;2022-07-24T05:29:03;17.30;;;12.13;;
20984;SDS011;10651;47.552;7.606;2022-07-24T05:31:32;17.85;;;11.95;;
20984;SDS011;10651;47.552;7.606;2022-07-24T05:37:08;17.67;;;12.60;;
20984;SDS011;10651;47.552;7.606;2022-07-24T05:39:37;14.35;;;12.50;;
20984;SDS011;10651;47.552;7.606;2022-07-24T05:42:11;14.93;;;13.38;;
20984;SDS011;10651;47.552;7.606;2022-07-24T05:44:37;19.27;;;13.10;;
20984;SDS011;10651;47.552;7.606;2022-07-24T05:47:15;18.58;;;12.60;;
20984;SDS011;10651;47.552;7.606;2022-07-24T05:49:46;16.17;;;12.60;;
20984;SDS011;10651;47.552;7.606;2022-07-24T05:52:15;15.23;;;12.68;;
20984;SDS011;10651;47.552;7.606;2022-07-24T05:54:47;16.58;;;12.30;;
20984;SDS011;10651;47.552;7.606;2022-07-24T05:57:18;17.48;;;13.23;;
20984;SDS011;10651;47.552;7.606;2022-07-24T05:59:46;18.33;;;13.05;;
20984;SDS011;10651;47.552;7.606;2022-07-24T06:02:20;15.65;;;12.30;;
20984;SDS011;10651;47.552;7.606;2022-07-24T06:04:49;15.93;;;13.02;;
20984;SDS011;10651;47.552;7.606;2022-07-24T06:07:17;15.35;;;12.27;;
20984;SDS011;10651;47.552;7.606;2022-07-24T06:09:54;16.08;;;12.95;;
20984;SDS011;10651;47.552;7.606;2022-07-24T06:12:30;23.40;;;12.30;;
20984;SDS011;10651;47.552;7.606;2022-07-24T06:15:26;15.77;;;12.45;;
20984;SDS011;10651;47.552;7.606;2022-07-24T06:17:55;14.55;;;12.48;;
20984;SDS011;10651;47.552;7.606;2022-07-24T06:20:33;18.75;;;12.63;;
20984;SDS011;10651;47.552;7.606;2022-07-24T06:23:25;18.80;;;11.23;;
20984;SDS011;10651;47.552;7.606;2022-07-24T06:25:51;14.35;;;12.10;;
20984;SDS011;10651;47.552;7.606;2022-07-24T06:28:20;16.00;;;12.40;;
20984;SDS011;10651;47.552;7.606;2022-07-24T06:30:53;18.75;;;11.52;;
20984;SDS011;10651;47.552;7.606;2022-07-24T06:33:30;17.10;;;12.57;;
20984;SDS011;10651;47.552;7.606;2022-07-24T06:36:21;15.07;;;12.50;;
20984;SDS011;10651;47.552;7.606;2022-07-24T06:38:52;20.92;;;11.82;;
20984;SDS011;10651;47.552;7.606;2022-07-24T06:41:23;16.67;;;11.02;;
20984;SDS011;10651;47.552;7.606;2022-07-24T06:44:09;15.80;;;11.75;;
20984;SDS011;10651;47.552;7.606;2022-07-24T06:46:46;18.15;;;12.15;;
20984;SDS011;10651;47.552;7.606;2022-07-24T06:49:23;19.23;;;11.90;;
20984;SDS011;10651;47.552;7.606;2022-07-24T06:51:54;16.67;;;11.25;;
20984;SDS011;10651;47.552;7.606;2022-07-24T06:54:22;16.77;;;11.35;;
20984;SDS011;10651;47.552;7.606;2022-07-24T06:56:51;12.77;;;11.48;;
20984;SDS011;10651;47.552;7.606;2022-07-24T06:59:29;13.80;;;11.40;;
20984;SDS011;10651;47.552;7.606;2022-07-24T07:02:00;14.52;;;11.82;;
20984;SDS011;10651;47.552;7.606;2022-07-24T07:04:34;16.55;;;11.68;;
20984;SDS011;10651;47.552;7.606;2022-07-24T07:07:10;15.45;;;11.68;;
20984;SDS011;10651;47.552;7.606;2022-07-24T07:09:49;17.17;;;11.82;;
20984;SDS011;10651;47.552;7.606;2022-07-24T07:12:31;19.20;;;11.98;;
20984;SDS011;10651;47.552;7.606;2022-07-24T07:15:03;13.57;;;11.38;;
20984;SDS011;10651;47.552;7.606;2022-07-24T07:17:38;18.55;;;10.95;;
20984;SDS011;10651;47.552;7.606;2022-07-24T07:20:16;13.63;;;11.45;;
20984;SDS011;10651;47.552;7.606;2022-07-24T07:22:57;12.27;;;10.98;;
20984;SDS011;10651;47.552;7.606;2022-07-24T07:25:37;13.95;;;11.05;;
20984;SDS011;10651;47.552;7.606;2022-07-24T07:28:08;16.05;;;11.70;;
20984;SDS011;10651;47.552;7.606;2022-07-24T07:30:56;16.80;;;12.05;;
20984;SDS011;10651;47.552;7.606;2022-07-24T07:34:01;17.10;;;12.00;;
20984;SDS011;10651;47.552;7.606;2022-07-24T07:36:56;13.48;;;11.63;;
20984;SDS011;10651;47.552;7.606;2022-07-24T07:40:01;14.93;;;11.40;;
20984;SDS011;10651;47.552;7.606;2022-07-24T07:45:23;14.07;;;12.13;;
20984;SDS011;10651;47.552;7.606;2022-07-24T07:55:08;17.77;;;11.45;;
20984;SDS011;10651;47.552;7.606;2022-07-24T07:57:57;17.98;;;11.95;;
20984;SDS011;10651;47.552;7.606;2022-07-24T08:01:24;17.67;;;10.93;;
20984;SDS011;10651;47.552;7.606;2022-07-24T08:03:55;18.40;;;11.77;;
20984;SDS011;10651;47.552;7.606;2022-07-24T08:06:42;17.60;;;11.43;;
20984;SDS011;10651;47.552;7.606;2022-07-24T08:09:23;12.57;;;11.20;;
20984;SDS011;10651;47.552;7.606;2022-07-24T08:11:57;15.90;;;10.70;;
20984;SDS011;10651;47.552;7.606;2022-07-24T08:14:38;13.95;;;11.15;;
20984;SDS011;10651;47.552;7.606;2022-07-24T08:17:17;12.35;;;10.15;;
20984;SDS011;10651;47.552;7.606;2022-07-24T08:19:50;14.57;;;11.30;;
20984;SDS011;10651;47.552;7.606;2022-07-24T08:22:51;15.15;;;10.55;;
20984;SDS011;10651;47.552;7.606;2022-07-24T08:25:43;15.85;;;11.10;;
20984;SDS011;10651;47.552;7.606;2022-07-24T08:28:17;12.77;;;11.43;;
20984;SDS011;10651;47.552;7.606;2022-07-24T08:30:53;16.80;;;11.93;;
20984;SDS011;10651;47.552;7.606;2022-07-24T08:36:27;17.95;;;12.00;;
20984;SDS011;10651;47.552;7.606;2022-07-24T08:38:55;15.15;;;12.30;;
20984;SDS011;10651;47.552;7.606;2022-07-24T08:41:21;12.68;;;11.35;;
20984;SDS011;10651;47.552;7.606;2022-07-24T08:43:47;15.85;;;11.68;;
20984;SDS011;10651;47.552;7.606;2022-07-24T08:49:12;14.38;;;12.30;;
20984;SDS011;10651;47.552;7.606;2022-07-24T08:52:08;15.07;;;11.60;;
20984;SDS011;10651;47.552;7.606;2022-07-24T08:54:43;12.80;;;11.07;;
20984;SDS011;10651;47.552;7.606;2022-07-24T08:57:21;15.40;;;12.40;;
20984;SDS011;10651;47.552;7.606;2022-07-24T08:59:55;16.25;;;11.65;;
20984;SDS011;10651;47.552;7.606;2022-07-24T09:02:24;18.52;;;11.77;;
20984;SDS011;10651;47.552;7.606;2022-07-24T09:04:57;13.35;;;11.95;;
20984;SDS011;10651;47.552;7.606;2022-07-24T09:07:46;15.20;;;12.75;;
20984;SDS011;10651;47.552;7.606;2022-07-24T09:10:17;13.73;;;12.20;;
20984;SDS011;10651;47.552;7.606;2022-07-24T09:12:57;17.55;;;12.13;;
20984;SDS011;10651;47.552;7.606;2022-07-24T09:15:41;15.07;;;10.93;;
20984;SDS011;10651;47.552;7.606;2022-07-24T09:18:39;14.57;;;11.57;;
20984;SDS011;10651;47.552;7.606;2022-07-24T09:21:15;13.48;;;11.45;;
20984;SDS011;10651;47.552;7.606;2022-07-24T09:23:52;13.73;;;11.30;;
20984;SDS011;10651;47.552;7.606;2022-07-24T09:26:34;15.25;;;11.30;;
20984;SDS011;10651;47.552;7.606;2022-07-24T09:29:12;14.82;;;11.77;;
20984;SDS011;10651;47.552;7.606;2022-07-24T09:32:10;14.27;;;11.05;;
20984;SDS011;10651;47.552;7.606;2022-07-24T09:34:42;12.77;;;10.95;;
20984;SDS011;10651;47.552;7.606;2022-07-24T09:37:10;16.40;;;10.88;;
20984;SDS011;10651;47.552;7.606;2022-07-24T09:39:45;16.58;;;10.82;;
20984;SDS011;10651;47.552;7.606;2022-07-24T09:42:43;11.63;;;10.43;;
20984;SDS011;10651;47.552;7.606;2022-07-24T09:45:18;17.52;;;10.30;;
20984;SDS011;10651;47.552;7.606;2022-07-24T09:47:51;15.48;;;10.75;;
20984;SDS011;10651;47.552;7.606;2022-07-24T09:50:32;13.13;;;10.25;;
20984;SDS011;10651;47.552;7.606;2022-07-24T09:53:21;11.93;;;10.38;;
20984;SDS011;10651;47.552;7.606;2022-07-24T09:56:06;13.80;;;10.32;;
20984;SDS011;10651;47.552;7.606;2022-07-24T09:58:35;14.43;;;11.30;;
20984;SDS011;10651;47.552;7.606;2022-07-24T10:01:35;16.75;;;11.82;;
20984;SDS011;10651;47.552;7.606;2022-07-24T10:04:06;14.18;;;11.90;;
20984;SDS011;10651;47.552;7.606;2022-07-24T10:06:46;13.75;;;11.90;;
20984;SDS011;10651;47.552;7.606;2022-07-24T10:09:18;15.27;;;11.77;;
20984;SDS011;10651;47.552;7.606;2022-07-24T10:11:59;11.93;;;10.23;;
20984;SDS011;10651;47.552;7.606;2022-07-24T10:14:38;12.25;;;10.85;;
20984;SDS011;10651;47.552;7.606;2022-07-24T10:17:08;12.07;;;9.68;;
20984;SDS011;10651;47.552;7.606;2022-07-24T10:19:39;13.52;;;11.52;;
20984;SDS011;10651;47.552;7.606;2022-07-24T10:22:26;13.93;;;10.80;;
20984;SDS011;10651;47.552;7.606;2022-07-24T10:25:30;13.98;;;10.70;;
20984;SDS011;10651;47.552;7.606;2022-07-24T10:28:17;10.57;;;9.48;;
20984;SDS011;10651;47.552;7.606;2022-07-24T10:31:09;11.90;;;9.90;;
20984;SDS011;10651;47.552;7.606;2022-07-24T10:33:41;15.10;;;10.52;;
20984;SDS011;10651;47.552;7.606;2022-07-24T10:36:19;13.95;;;9.75;;
20984;SDS011;10651;47.552;7.606;2022-07-24T10:39:10;15.52;;;10.27;;
20984;SDS011;10651;47.552;7.606;2022-07-24T10:41:41;15.38;;;9.75;;
20984;SDS011;10651;47.552;7.606;2022-07-24T10:44:20;13.57;;;10.55;;
20984;SDS011;10651;47.552;7.606;2022-07-24T10:46:57;13.20;;;9.90;;
20984;SDS011;10651;47.552;7.606;2022-07-24T10:49:35;13.70;;;9.68;;
20984;SDS011;10651;47.552;7.606;2022-07-24T10:52:10;10.82;;;8.93;;
20984;SDS011;10651;47.552;7.606;2022-07-24T10:54:48;15.98;;;9.40;;
20984;SDS011;10651;47.552;7.606;2022-07-24T10:57:48;14.27;;;9.07;;
20984;SDS011;10651;47.552;7.606;2022-07-24T11:00:31;13.52;;;9.18;;
20984;SDS011;10651;47.552;7.606;2022-07-24T11:03:09;11.02;;;8.30;;
20984;SDS011;10651;47.552;7.606;2022-07-24T11:08:32;10.98;;;9.55;;
20984;SDS011;10651;47.552;7.606;2022-07-24T11:11:06;12.23;;;8.88;;
20984;SDS011;10651;47.552;7.606;2022-07-24T11:21:06;12.15;;;8.73;;
20984;SDS011;10651;47.552;7.606;2022-07-24T11:23:33;14.10;;;8.80;;
20984;SDS011;10651;47.552;7.606;2022-07-24T11:31:47;11.40;;;8.40;;
20984;SDS011;10651;47.552;7.606;2022-07-24T11:34:14;12.15;;;8.00;;
20984;SDS011;10651;47.552;7.606;2022-07-24T11:36:41;10.23;;;8.30;;
20984;SDS011;10651;47.552;7.606;2022-07-24T11:39:13;9.35;;;8.40;;
20984;SDS011;10651;47.552;7.606;2022-07-24T11:41:50;10.88;;;8.50;;
20984;SDS011;10651;47.552;7.606;2022-07-24T11:44:24;11.45;;;8.05;;
20984;SDS011;10651;47.552;7.606;2022-07-24T11:46:55;13.27;;;8.25;;
20984;SDS011;10651;47.552;7.606;2022-07-24T11:49:23;11.23;;;8.32;;
20984;SDS011;10651;47.552;7.606;2022-07-24T11:51:50;10.30;;;7.97;;
20984;SDS011;10651;47.552;7.606;2022-07-24T11:54:21;12.27;;;8.00;;
20984;SDS011;10651;47.552;7.606;2022-07-24T11:56:55;8.23;;;7.10;;
20984;SDS011;10651;47.552;7.606;2022-07-24T11:59:29;11.02;;;7.85;;
20984;SDS011;10651;47.552;7.606;2022-07-24T12:02:03;9.88;;;7.40;;
20984;SDS011;10651;47.552;7.606;2022-07-24T12:04:31;12.18;;;7.88;;
20984;SDS011;10651;47.552;7.606;2022-07-24T12:06:57;7.70;;;6.75;;
20984;SDS011;10651;47.552;7.606;2022-07-24T12:09:23;12.85;;;7.78;;
20984;SDS011;10651;47.552;7.606;2022-07-24T12:11:55;8.52;;;7.20;;
20984;SDS011;10651;47.552;7.606;2022-07-24T12:14:21;9.25;;;7.13;;
20984;SDS011;10651;47.552;7.606;2022-07-24T12:16:52;8.30;;;7.43;;
20984;SDS011;10651;47.552;7.606;2022-07-24T12:19:21;8.40;;;6.75;;
20984;SDS011;10651;47.552;7.606;2022-07-24T12:21:52;11.23;;;7.28;;
20984;SDS011;10651;47.552;7.606;2022-07-24T12:24:22;11.75;;;7.57;;
20984;SDS011;10651;47.552;7.606;2022-07-24T12:26:52;9.55;;;7.25;;
20984;SDS011;10651;47.552;7.606;2022-07-24T12:29:26;10.18;;;7.05;;
20984;SDS011;10651;47.552;7.606;2022-07-24T12:31:53;12.32;;;7.00;;
20984;SDS011;10651;47.552;7.606;2022-07-24T12:34:42;9.82;;;7.40;;
20984;SDS011;10651;47.552;7.606;2022-07-24T12:37:16;9.20;;;7.30;;
20984;SDS011;10651;47.552;7.606;2022-07-24T12:39:48;7.85;;;6.75;;
20984;SDS011;10651;47.552;7.606;2022-07-24T12:42:15;7.80;;;6.65;;
20984;SDS011;10651;47.552;7.606;2022-07-24T12:44:41;9.60;;;7.07;;
20984;SDS011;10651;47.552;7.606;2022-07-24T12:47:09;8.35;;;6.65;;
20984;SDS011;10651;47.552;7.606;2022-07-24T12:49:42;7.20;;;6.50;;
20984;SDS011;10651;47.552;7.606;2022-07-24T12:52:22;9.32;;;6.93;;
20984;SDS011;10651;47.552;7.606;2022-07-24T12:54:49;6.95;;;6.22;;
20984;SDS011;10651;47.552;7.606;2022-07-24T12:57:19;12.00;;;6.82;;
20984;SDS011;10651;47.552;7.606;2022-07-24T12:59:47;8.88;;;7.55;;
20984;SDS011;10651;47.552;7.606;2022-07-24T13:02:18;8.43;;;6.80;;
20984;SDS011;10651;47.552;7.606;2022-07-24T13:04:46;8.82;;;6.95;;
20984;SDS011;10651;47.552;7.606;2022-07-24T13:07:16;9.63;;;6.88;;
20984;SDS011;10651;47.552;7.606;2022-07-24T13:09:44;9.05;;;6.97;;
20984;SDS011;10651;47.552;7.606;2022-07-24T13:12:10;10.88;;;6.22;;
20984;SDS011;10651;47.552;7.606;2022-07-24T13:14:39;8.18;;;7.07;;
20984;SDS011;10651;47.552;7.606;2022-07-24T13:17:06;9.80;;;6.43;;
20984;SDS011;10651;47.552;7.606;2022-07-24T13:19:37;7.20;;;6.50;;
20984;SDS011;10651;47.552;7.606;2022-07-24T13:22:04;6.88;;;6.05;;
20984;SDS011;10651;47.552;7.606;2022-07-24T13:24:30;6.90;;;6.20;;
20984;SDS011;10651;47.552;7.606;2022-07-24T13:27:00;7.70;;;6.05;;
20984;SDS011;10651;47.552;7.606;2022-07-24T13:29:26;8.52;;;6.38;;
20984;SDS011;10651;47.552;7.606;2022-07-24T13:31:58;10.15;;;6.60;;
20984;SDS011;10651;47.552;7.606;2022-07-24T13:34:24;7.80;;;6.47;;
20984;SDS011;10651;47.552;7.606;2022-07-24T13:36:56;8.27;;;6.60;;
20984;SDS011;10651;47.552;7.606;2022-07-24T13:39:25;7.20;;;6.20;;
20984;SDS011;10651;47.552;7.606;2022-07-24T13:41:50;11.35;;;6.80;;
20984;SDS011;10651;47.552;7.606;2022-07-24T13:44:18;7.68;;;6.88;;
20984;SDS011;10651;47.552;7.606;2022-07-24T13:46:44;7.30;;;6.15;;
20984;SDS011;10651;47.552;7.606;2022-07-24T13:49:10;8.90;;;6.25;;
20984;SDS011;10651;47.552;7.606;2022-07-24T13:51:39;7.30;;;6.60;;
20984;SDS011;10651;47.552;7.606;2022-07-24T13:54:05;7.45;;;6.63;;
20984;SDS011;10651;47.552;7.606;2022-07-24T13:56:31;12.77;;;7.05;;
20984;SDS011;10651;47.552;7.606;2022-07-24T13:59:00;6.88;;;5.85;;
20984;SDS011;10651;47.552;7.606;2022-07-24T14:01:26;9.57;;;6.90;;
20984;SDS011;10651;47.552;7.606;2022-07-24T14:03:52;12.05;;;6.68;;
20984;SDS011;10651;47.552;7.606;2022-07-24T14:06:17;9.55;;;6.82;;
20984;SDS011;10651;47.552;7.606;2022-07-24T14:08:44;6.68;;;5.85;;
20984;SDS011;10651;47.552;7.606;2022-07-24T14:11:10;8.27;;;5.97;;
20984;SDS011;10651;47.552;7.606;2022-07-24T14:13:35;8.82;;;6.28;;
20984;SDS011;10651;47.552;7.606;2022-07-24T14:16:01;7.65;;;6.53;;
20984;SDS011;10651;47.552;7.606;2022-07-24T14:18:29;5.90;;;5.30;;
20984;SDS011;10651;47.552;7.606;2022-07-24T14:20:55;6.75;;;5.88;;
20984;SDS011;10651;47.552;7.606;2022-07-24T14:23:23;8.27;;;6.35;;
20984;SDS011;10651;47.552;7.606;2022-07-24T14:25:49;7.63;;;6.32;;
20984;SDS011;10651;47.552;7.606;2022-07-24T14:28:18;7.10;;;6.40;;
20984;SDS011;10651;47.552;7.606;2022-07-24T14:30:44;6.72;;;6.05;;
20984;SDS011;10651;47.552;7.606;2022-07-24T14:33:11;6.57;;;5.97;;
20984;SDS011;10651;47.552;7.606;2022-07-24T14:35:37;6.32;;;5.72;;
20984;SDS011;10651;47.552;7.606;2022-07-24T14:38:03;8.77;;;5.97;;
20984;SDS011;10651;47.552;7.606;2022-07-24T14:40:29;6.00;;;5.50;;
20984;SDS011;10651;47.552;7.606;2022-07-24T14:42:55;6.40;;;5.78;;
20984;SDS011;10651;47.552;7.606;2022-07-24T14:45:21;7.20;;;5.82;;
20984;SDS011;10651;47.552;7.606;2022-07-24T14:47:47;9.75;;;6.25;;
20984;SDS011;10651;47.552;7.606;2022-07-24T14:50:13;8.43;;;5.95;;
20984;SDS011;10651;47.552;7.606;2022-07-24T14:52:39;10.35;;;6.05;;
20984;SDS011;10651;47.552;7.606;2022-07-24T14:55:07;8.73;;;6.10;;
20984;SDS011;10651;47.552;7.606;2022-07-24T14:57:34;8.73;;;6.57;;
20984;SDS011;10651;47.552;7.606;2022-07-24T15:00:03;7.47;;;6.38;;
20984;SDS011;10651;47.552;7.606;2022-07-24T15:02:30;6.75;;;5.68;;
20984;SDS011;10651;47.552;7.606;2022-07-24T15:04:58;9.45;;;6.25;;
20984;SDS011;10651;47.552;7.606;2022-07-24T15:07:24;7.40;;;6.70;;
20984;SDS011;10651;47.552;7.606;2022-07-24T15:09:50;8.45;;;5.90;;
20984;SDS011;10651;47.552;7.606;2022-07-24T15:12:16;7.50;;;5.80;;
20984;SDS011;10651;47.552;7.606;2022-07-24T15:14:44;6.80;;;6.10;;
20984;SDS011;10651;47.552;7.606;2022-07-24T15:17:10;8.13;;;5.80;;
20984;SDS011;10651;47.552;7.606;2022-07-24T15:19:38;7.13;;;5.72;;
20984;SDS011;10651;47.552;7.606;2022-07-24T15:22:04;7.63;;;6.15;;
20984;SDS011;10651;47.552;7.606;2022-07-24T15:24:29;7.28;;;5.63;;
20984;SDS011;10651;47.552;7.606;2022-07-24T15:26:55;8.40;;;5.80;;
20984;SDS011;10651;47.552;7.606;2022-07-24T15:29:21;6.25;;;5.65;;
20984;SDS011;10651;47.552;7.606;2022-07-24T15:31:46;6.22;;;5.32;;
20984;SDS011;10651;47.552;7.606;2022-07-24T15:34:13;6.47;;;5.38;;
20984;SDS011;10651;47.552;7.606;2022-07-24T15:36:48;6.95;;;5.82;;
20984;SDS011;10651;47.552;7.606;2022-07-24T15:39:19;9.27;;;6.30;;
20984;SDS011;10651;47.552;7.606;2022-07-24T15:41:47;14.85;;;8.15;;
20984;SDS011;10651;47.552;7.606;2022-07-24T15:44:13;6.70;;;5.57;;
20984;SDS011;10651;47.552;7.606;2022-07-24T15:46:39;7.88;;;5.32;;
20984;SDS011;10651;47.552;7.606;2022-07-24T15:49:05;6.93;;;5.95;;
20984;SDS011;10651;47.552;7.606;2022-07-24T15:51:31;7.25;;;5.60;;
20984;SDS011;10651;47.552;7.606;2022-07-24T15:54:00;8.50;;;5.97;;